Strona główna
METAR-TAF:

METAR-TAF

Lotnisko :

Columbus, Indiana, Stany Zjednoczone

Szerokość geograficzna: 39-16N, Długość geograficzna: 085-54W, wysokość: 200 m

Aktualna obserwacja pogody

Raport powstał 2 godziny i 36 minut temu, godzina 01:45 UTC
Cisza
Temperatura 28°C
Wilgotność 74%
Ciśnienie 1014 hPa
Widzialność: 16.1 km
bezchmurnie

METAR: KBAK 210145Z 00000KT 10SM SKC 28/23 A2993 RMK LAST

czas: 00:21 (04:21 UTC)


TAF: brakujący

Obserwacja i prognoza pogody dla ponad 4000 lotnisk (raport METAR i TAF).

Dostępne stacje oznaczono żółtymi i czerwonymi punktami na mapie.

Najedź kursorem aby zobaczyć nazwę stacji.

Kliknij aby zobaczyć obserwacje i prognozy pogody.

Aby zmienić mapę: kliknij na zielony przycisk z czarnym krzyżykiem, aby powiększyć; na zielony przycisk z myślnikiem, aby pomniejszyć; na zielone strzałki, aby przejść do map sąsiednich.


METAR-TAF: